Terminal Aerodrome Forecast
Issued by NWS Riverton, WY

Home | Current Version | Previous Version | Text Only | Print | Product List | Glossary On
Versions: 1 2 3 4 5 6 7 8 9 10 11 12 13 14 15
000
FTUS45 KRIW 221100
TAFRIW
TAF
KRIW 221130Z 2212/2312 33013KT P6SM VCSH SCT060 BKN090
     FM221900 08008KT P6SM SCT070 BKN100
     FM222300 02011KT P6SM VCSH BKN080
     FM230500 01008KT P6SM -SHRA BKN060
     FM231000 31008KT P6SM BKN060=

USA.gov is the U.S. government's official web portal to all federal, state and local government web resources and services.